createdAt,value
2022-09-27T00:00:44.962Z,95018.09
2022-09-27T00:03:13.598Z,95015.50
2022-09-27T00:05:41.630Z,95015.50
2022-09-27T00:08:10.575Z,95014.66
2022-09-27T00:10:38.214Z,95006.03
2022-09-27T00:13:05.783Z,94996.59
2022-09-27T00:15:33.544Z,94998.38
2022-09-27T00:18:01.166Z,94990.78
2022-09-27T00:20:28.819Z,94983.94
2022-09-27T00:22:56.371Z,94973.72
2022-09-27T00:25:25.557Z,94971.34
2022-09-27T00:27:53.141Z,94962.94
2022-09-27T00:30:20.724Z,94959.25
2022-09-27T00:32:48.283Z,94955.84
2022-09-27T00:35:16.833Z,94949.03
2022-09-27T00:37:44.542Z,94956.34
2022-09-27T00:40:16.199Z,94947.16
2022-09-27T00:42:48.209Z,94948.41
2022-09-27T00:45:17.969Z,94943.66
2022-09-27T00:47:54.197Z,94938.63
2022-09-27T00:50:29.741Z,94942.06
2022-09-27T00:53:05.514Z,94932.38
2022-09-27T00:55:39.038Z,94931.03
2022-09-27T00:58:09.196Z,94929.69
2022-09-27T01:00:40.899Z,94924.94
2022-09-27T01:03:13.696Z,94924.38
2022-09-27T01:05:42.553Z,94920.19
2022-09-27T01:08:10.353Z,94915.72
2022-09-27T01:10:47.339Z,94921.75
2022-09-27T01:13:26.277Z,94910.00
2022-09-27T01:16:00.583Z,94919.69
2022-09-27T01:18:35.963Z,94911.59
2022-09-27T01:21:25.300Z,94911.34
2022-09-27T01:24:07.963Z,94914.78
2022-09-27T01:26:55.949Z,94911.09
2022-09-27T01:29:31.118Z,94907.94
2022-09-27T01:32:10.797Z,94901.91
2022-09-27T01:34:45.951Z,94900.31
2022-09-27T01:37:21.837Z,94889.06
2022-09-27T01:39:57.263Z,94879.34
2022-09-27T01:42:28.122Z,94885.41
2022-09-27T01:45:02.223Z,94881.47
2022-09-27T01:47:39.396Z,94890.31
2022-09-27T01:50:12.569Z,94887.72
2022-09-27T01:52:44.873Z,94885.31
2022-09-27T01:55:16.044Z,94888.22
2022-09-27T01:57:48.301Z,94892.63
2022-09-27T02:00:16.201Z,94889.00
2022-09-27T02:02:49.385Z,94896.84
2022-09-27T02:05:20.015Z,94884.53
2022-09-27T02:07:54.376Z,94872.50
2022-09-27T02:10:26.025Z,94869.06
2022-09-27T02:12:59.443Z,94867.25
2022-09-27T02:15:27.820Z,94874.84
2022-09-27T02:18:02.537Z,94874.63
2022-09-27T02:20:34.881Z,94872.22
2022-09-27T02:23:15.085Z,94868.59
2022-09-27T02:25:47.828Z,94870.66
2022-09-27T02:28:23.923Z,94869.06
2022-09-27T02:30:51.536Z,94868.72
2022-09-27T02:33:23.892Z,94875.81
2022-09-27T02:35:51.465Z,94871.34
2022-09-27T02:38:19.344Z,94868.72
2022-09-27T02:40:48.568Z,94867.13
2022-09-27T02:43:18.750Z,94864.78
2022-09-27T02:45:58.260Z,94877.88
2022-09-27T02:48:33.021Z,94877.59
2022-09-27T02:51:18.895Z,94864.31
2022-09-27T02:54:00.122Z,94873.97
2022-09-27T02:56:36.290Z,94874.44
2022-09-27T02:59:09.017Z,94865.25
2022-09-27T03:01:43.488Z,94874.59
2022-09-27T03:04:18.615Z,94871.69
2022-09-27T03:06:48.240Z,94866.69
2022-09-27T03:09:19.892Z,94874.78
2022-09-27T03:11:47.675Z,94872.09
2022-09-27T03:14:15.202Z,94900.81
2022-09-27T03:16:42.735Z,94885.28
2022-09-27T03:19:11.737Z,94889.84
2022-09-27T03:21:39.316Z,94893.97
2022-09-27T03:24:07.178Z,94891.84
2022-09-27T03:26:34.720Z,94897.78
2022-09-27T03:29:02.266Z,94899.06
2022-09-27T03:31:30.477Z,94907.91
2022-09-27T03:33:58.160Z,94898.16
2022-09-27T03:36:27.399Z,94902.53
2022-09-27T03:38:54.995Z,94899.59
2022-09-27T03:41:22.714Z,94903.69
2022-09-27T03:43:50.317Z,94903.13
2022-09-27T03:46:17.963Z,94906.53
2022-09-27T03:48:45.521Z,94912.03
2022-09-27T03:51:13.195Z,94916.91
2022-09-27T03:53:42.827Z,94921.38
2022-09-27T03:56:10.857Z,94934.31
2022-09-27T03:58:38.362Z,94933.69
2022-09-27T04:01:05.919Z,94924.72
2022-09-27T04:03:33.498Z,94933.03
2022-09-27T04:06:01.007Z,94927.25
2022-09-27T04:08:28.544Z,94928.03
2022-09-27T04:10:57.529Z,94930.09
2022-09-27T04:13:25.136Z,94932.47
2022-09-27T04:15:52.748Z,94931.44
2022-09-27T04:18:20.251Z,94933.47
2022-09-27T04:20:47.809Z,94933.75
2022-09-27T04:23:15.415Z,94933.19
2022-09-27T04:25:43.282Z,94941.25
2022-09-27T04:28:12.941Z,94936.00
2022-09-27T04:30:41.352Z,94939.09
2022-09-27T04:33:08.967Z,94940.13
2022-09-27T04:35:54.186Z,94943.75
2022-09-27T04:38:24.024Z,94943.19
2022-09-27T04:40:51.724Z,94957.75
2022-09-27T04:43:20.757Z,94953.00
2022-09-27T04:45:48.296Z,94949.25
2022-09-27T04:48:16.317Z,94953.34
2022-09-27T04:50:43.809Z,94961.41
2022-09-27T04:53:14.762Z,94964.25
2022-09-27T04:55:46.283Z,94959.03
2022-09-27T05:01:00.023Z,94975.16
2022-09-27T05:06:10.963Z,94989.13
2022-09-27T05:08:41.952Z,94970.50
2022-09-27T05:16:32.012Z,94989.13
2022-09-27T05:19:02.936Z,94992.53
2022-09-27T05:21:33.152Z,94993.56
2022-09-27T05:24:02.144Z,94995.63
2022-09-27T05:26:31.117Z,95004.47
2022-09-27T05:28:59.725Z,95004.09
2022-09-27T05:31:29.923Z,95012.63
2022-09-27T05:33:58.929Z,95008.22
2022-09-27T05:36:27.729Z,95001.75
2022-09-27T05:38:56.637Z,95004.34
2022-09-27T05:41:26.424Z,95019.44
2022-09-27T05:43:56.546Z,95011.03
2022-09-27T05:46:26.566Z,95013.88
2022-09-27T05:48:57.069Z,95008.88
2022-09-27T05:51:25.777Z,95009.44
2022-09-27T05:53:54.657Z,95011.25
2022-09-27T05:56:27.215Z,95014.09
2022-09-27T05:58:56.166Z,95018.31
2022-09-27T06:01:27.960Z,95020.34
2022-09-27T06:03:58.414Z,95024.00
2022-09-27T06:06:26.973Z,95028.88
2022-09-27T06:12:02.470Z,95042.13
2022-09-27T06:14:33.981Z,95035.78
2022-09-27T06:19:39.688Z,95036.22
2022-09-27T06:22:08.636Z,95052.91
2022-09-27T06:24:37.745Z,95052.91
2022-09-27T06:29:42.353Z,95057.13
2022-09-27T06:34:48.427Z,95055.50
2022-09-27T06:37:17.291Z,95063.59
2022-09-27T06:42:29.618Z,95060.84
2022-09-27T06:47:40.100Z,95067.75
2022-09-27T06:50:12.754Z,95075.03
2022-09-27T06:52:47.990Z,95078.22
2022-09-27T06:58:16.598Z,95080.34
2022-09-27T07:00:48.120Z,95091.78
2022-09-27T07:03:17.234Z,95092.03
2022-09-27T07:05:57.766Z,95098.50
2022-09-27T07:08:29.202Z,95099.69
2022-09-27T07:11:03.233Z,95099.69
2022-09-27T07:13:34.864Z,95104.50
2022-09-27T07:16:04.203Z,95107.69
2022-09-27T07:18:33.130Z,95108.47
2022-09-27T07:21:03.503Z,95112.91
2022-09-27T07:23:32.711Z,95120.16
2022-09-27T07:26:04.768Z,95122.75
2022-09-27T07:28:33.856Z,95120.16
2022-09-27T07:31:04.103Z,95128.56
2022-09-27T07:33:33.800Z,95132.19
2022-09-27T07:36:08.709Z,95138.19
2022-09-27T07:38:37.870Z,95135.81
2022-09-27T07:41:10.497Z,95144.06
2022-09-27T07:43:38.861Z,95149.28
2022-09-27T07:48:43.777Z,95150.75
2022-09-27T07:51:16.314Z,95164.81
2022-09-27T07:53:45.438Z,95162.78
2022-09-27T07:56:15.641Z,95166.41
2022-09-27T07:58:45.026Z,95173.22
2022-09-27T08:01:14.856Z,95164.59
2022-09-27T08:03:43.972Z,95168.47
2022-09-27T08:06:14.711Z,95172.06
2022-09-27T08:08:43.955Z,95177.28
2022-09-27T08:11:18.868Z,95176.50
2022-09-27T08:13:52.709Z,95182.50
2022-09-27T08:16:20.948Z,95182.50
2022-09-27T08:18:49.294Z,95183.28
2022-09-27T08:21:18.545Z,95189.88
2022-09-27T08:23:49.160Z,95190.47
2022-09-27T08:26:17.120Z,95195.25
2022-09-27T08:28:45.234Z,95187.44
2022-09-27T08:31:15.830Z,95198.44
2022-09-27T08:33:44.580Z,95200.59
2022-09-27T08:36:13.725Z,95199.16
2022-09-27T08:38:46.985Z,95211.63
2022-09-27T08:41:44.820Z,95215.28
2022-09-27T08:44:20.395Z,95213.78
2022-09-27T08:47:03.907Z,95224.38
2022-09-27T08:49:39.923Z,95215.91
2022-09-27T08:52:22.501Z,95220.44
2022-09-27T08:54:53.101Z,95224.22
2022-09-27T08:57:23.165Z,95223.78
2022-09-27T09:00:07.229Z,95217.53
2022-09-27T09:02:40.332Z,95225.06
2022-09-27T09:05:19.794Z,95225.78
2022-09-27T09:08:03.411Z,95231.50
2022-09-27T09:11:04.668Z,95228.22
2022-09-27T09:13:54.419Z,95219.91
2022-09-27T09:16:38.036Z,95237.97
2022-09-27T09:19:36.468Z,95231.09
2022-09-27T09:22:50.082Z,95234.06
2022-09-27T09:25:42.694Z,95228.41
2022-09-27T09:28:28.065Z,95227.59
2022-09-27T09:31:08.495Z,95227.00
2022-09-27T09:33:41.765Z,95228.84
2022-09-27T09:36:15.589Z,95233.63
2022-09-27T09:38:52.721Z,95235.69
2022-09-27T09:41:29.720Z,95229.47
2022-09-27T09:44:02.796Z,95240.88
2022-09-27T09:46:40.189Z,95234.84
2022-09-27T09:49:20.066Z,95234.72
2022-09-27T09:52:06.493Z,95234.84
2022-09-27T09:54:42.484Z,95247.00
2022-09-27T09:57:17.683Z,95248.03
2022-09-27T09:59:54.973Z,95241.00
2022-09-27T10:02:30.600Z,95250.66
2022-09-27T10:05:07.466Z,95248.03
2022-09-27T10:07:43.563Z,95246.69
2022-09-27T10:10:18.998Z,95257.38
2022-09-27T10:12:51.972Z,95259.19
2022-09-27T10:15:28.243Z,95259.97
2022-09-27T10:18:00.911Z,95258.94
2022-09-27T10:20:34.338Z,95253.38
2022-09-27T10:23:10.771Z,95251.91
2022-09-27T10:25:52.839Z,95268.28
2022-09-27T10:28:34.114Z,95266.81
2022-09-27T10:31:07.643Z,95268.41
2022-09-27T10:33:39.651Z,95274.66
2022-09-27T10:36:28.175Z,95273.06
2022-09-27T10:39:06.463Z,95290.59
2022-09-27T10:41:37.032Z,95275.34
2022-09-27T10:44:22.722Z,95281.84
2022-09-27T10:47:00.768Z,95271.00
2022-09-27T10:49:33.433Z,95278.06
2022-09-27T10:52:07.304Z,95271.00
2022-09-27T10:54:48.069Z,95268.66
2022-09-27T10:57:22.590Z,95258.84
2022-09-27T10:59:59.646Z,95260.44
2022-09-27T11:02:33.556Z,95257.63
2022-09-27T11:05:16.656Z,95258.06
2022-09-27T11:08:07.550Z,95258.47
2022-09-27T11:10:44.175Z,95259.81
2022-09-27T11:13:17.727Z,95264.69
2022-09-27T11:16:22.775Z,95259.28
2022-09-27T11:19:15.568Z,95264.06
2022-09-27T11:21:51.970Z,95271.25
2022-09-27T11:24:56.330Z,95262.25
2022-09-27T11:27:38.581Z,95251.66
2022-09-27T11:30:18.278Z,95255.78
2022-09-27T11:33:12.859Z,95247.09
2022-09-27T11:35:58.710Z,95235.25
2022-09-27T11:38:53.088Z,95238.16
2022-09-27T11:41:34.900Z,95231.53
2022-09-27T11:44:21.680Z,95241.16
2022-09-27T11:47:00.479Z,95234.00
2022-09-27T11:50:07.729Z,95231.22
2022-09-27T11:52:51.017Z,95237.78
2022-09-27T11:55:33.298Z,95228.16
2022-09-27T11:58:12.496Z,95225.94
2022-09-27T12:00:58.033Z,95213.28
2022-09-27T12:04:09.081Z,95216.94
2022-09-27T12:06:49.591Z,95221.84
2022-09-27T12:09:25.413Z,95212.31
2022-09-27T12:11:58.953Z,95209.94
2022-09-27T12:14:36.609Z,95200.25
2022-09-27T12:17:08.369Z,95205.81
2022-09-27T12:19:42.107Z,95192.69
2022-09-27T12:22:40.341Z,95188.00
2022-09-27T12:25:20.495Z,95195.16
2022-09-27T12:27:58.481Z,95189.47
2022-09-27T12:30:41.983Z,95174.06
2022-09-27T12:33:19.387Z,95180.09
2022-09-27T12:35:56.549Z,95180.66
2022-09-27T12:38:39.581Z,95175.44
2022-09-27T12:41:13.738Z,95166.28
2022-09-27T12:43:48.754Z,95159.44
2022-09-27T12:46:30.722Z,95158.88
2022-09-27T12:49:09.561Z,95159.13
2022-09-27T12:51:42.705Z,95158.09
2022-09-27T12:54:36.594Z,95142.59
2022-09-27T12:57:20.302Z,95141.03
2022-09-27T13:00:03.637Z,95140.47
2022-09-27T13:03:15.642Z,95218.75
2022-09-27T13:06:09.504Z,95240.06
2022-09-27T13:09:17.503Z,95239.44
2022-09-27T13:11:55.503Z,95211.72
2022-09-27T13:14:35.988Z,95218.13
2022-09-27T13:17:04.989Z,95240.31
2022-09-27T13:19:56.427Z,95249.41
2022-09-27T13:22:52.568Z,95288.84
2022-09-27T13:25:53.057Z,95277.34
2022-09-27T13:28:37.187Z,95260.63
2022-09-27T13:31:10.857Z,95265.50
2022-09-27T13:33:49.849Z,95261.50
2022-09-27T13:36:30.967Z,95240.81
2022-09-27T13:39:24.584Z,95245.13
2022-09-27T13:42:11.606Z,95233.66
2022-09-27T13:44:55.410Z,95242.06
2022-09-27T13:47:42.847Z,95241.03
2022-09-27T13:50:22.355Z,95241.03
2022-09-27T13:53:03.963Z,95245.25
2022-09-27T13:55:49.923Z,95236.94
2022-09-27T13:58:40.596Z,95240.13
2022-09-27T14:01:18.823Z,95238.34
2022-09-27T14:03:51.524Z,95241.75
2022-09-27T14:06:26.000Z,95235.47
2022-09-27T14:08:57.791Z,95230.72
2022-09-27T14:36:19.380Z,95202.06
2022-09-27T14:57:57.641Z,95228.47
2022-09-27T15:22:42.357Z,95218.22
2022-09-27T15:27:59.353Z,95218.84
2022-09-27T15:33:09.271Z,95240.00
2022-09-27T15:38:36.858Z,95222.72
2022-09-27T15:51:48.939Z,95219.19
2022-09-27T15:54:22.596Z,95212.34
2022-09-27T16:02:16.907Z,95223.25
2022-09-27T16:04:46.472Z,95217.00
2022-09-27T16:07:16.671Z,95204.53
2022-09-27T16:09:47.417Z,95210.31
2022-09-27T16:12:17.339Z,95223.75
2022-09-27T16:14:46.921Z,95233.94
2022-09-27T16:17:16.244Z,95219.09
2022-09-27T16:19:45.723Z,95228.72
2022-09-27T16:22:14.805Z,95225.91
2022-09-27T16:24:44.244Z,95224.91
2022-09-27T16:27:21.194Z,95227.50
2022-09-27T16:35:20.867Z,95238.38
2022-09-27T16:37:59.350Z,95224.75
2022-09-27T16:40:40.694Z,95239.25
2022-09-27T16:43:42.469Z,95230.31
2022-09-27T16:46:22.659Z,95219.28
2022-09-27T16:51:55.455Z,95222.78
2022-09-27T16:54:29.465Z,95233.00
2022-09-27T16:57:01.355Z,95228.78
2022-09-27T17:05:57.445Z,95233.22
2022-09-27T17:08:37.894Z,95227.19
2022-09-27T17:11:20.847Z,95215.34
2022-09-27T17:13:55.416Z,95231.03
2022-09-27T17:16:39.274Z,95222.97
2022-09-27T17:19:11.863Z,95220.38
2022-09-27T17:21:46.445Z,95234.22
2022-09-27T17:24:16.333Z,95229.00
2022-09-27T17:26:55.955Z,95221.16
2022-09-27T17:29:29.247Z,95227.41
2022-09-27T17:32:04.066Z,95230.03
2022-09-27T17:34:55.050Z,95218.53
2022-09-27T17:37:31.929Z,95222.19
2022-09-27T17:40:18.376Z,95221.16
2022-09-27T17:43:04.432Z,95220.56
2022-09-27T17:45:36.994Z,95228.88
2022-09-27T17:48:30.021Z,95223.84
2022-09-27T17:51:01.347Z,95211.63
2022-09-27T17:53:36.072Z,95216.69
2022-09-27T17:56:09.057Z,95232.34
2022-09-27T17:58:40.879Z,95220.91
2022-09-27T18:01:09.133Z,95229.94
2022-09-27T18:06:28.496Z,95230.97
2022-09-27T18:09:32.415Z,95236.00
2022-09-27T18:21:39.841Z,95256.28
2022-09-27T18:39:15.406Z,95276.22
2022-09-27T18:41:43.217Z,95276.22
2022-09-27T18:44:21.172Z,95273.41
2022-09-27T18:58:21.594Z,95284.25
2022-09-27T19:00:59.329Z,95287.91
2022-09-27T19:09:02.050Z,95292.91
2022-09-27T19:11:44.384Z,95290.72
2022-09-27T19:17:13.000Z,95302.78
2022-09-27T19:22:23.690Z,95293.19
2022-09-27T19:27:41.302Z,95307.69
2022-09-27T20:13:41.597Z,95310.50
2022-09-27T20:16:12.660Z,95312.53
2022-09-27T20:18:42.438Z,95307.50
2022-09-27T20:21:13.392Z,95305.94
2022-09-27T20:23:44.494Z,95303.53
2022-09-27T20:26:14.427Z,95300.34
2022-09-27T20:28:45.097Z,95306.56
2022-09-27T20:31:17.565Z,95302.34
2022-09-27T20:33:46.923Z,95299.97
2022-09-27T20:36:17.264Z,95299.16
2022-09-27T20:38:49.576Z,95293.16
2022-09-27T20:41:25.182Z,95280.31
2022-09-27T20:44:00.436Z,95280.31
2022-09-27T20:46:31.465Z,95279.31
2022-09-27T20:49:05.712Z,95290.34
2022-09-27T20:51:34.801Z,95287.94
2022-09-27T20:54:05.055Z,95295.97
2022-09-27T20:56:38.636Z,95282.94
2022-09-27T20:59:18.810Z,95284.16
2022-09-27T21:07:39.866Z,95272.50
2022-09-27T21:13:47.421Z,95260.75
2022-09-27T21:16:20.404Z,95261.47
2022-09-27T21:19:05.758Z,95261.91
2022-09-27T21:21:40.843Z,95252.84
2022-09-27T21:24:34.205Z,95257.03
2022-09-27T21:27:07.503Z,95254.44
2022-09-27T21:29:45.549Z,95260.03
2022-09-27T21:32:38.736Z,95260.81
2022-09-27T21:35:18.402Z,95250.59
2022-09-27T21:37:49.399Z,95247.19
2022-09-27T21:40:51.141Z,95260.44
2022-09-27T21:43:25.085Z,95268.69
2022-09-27T21:45:55.901Z,95272.53
2022-09-27T21:48:32.333Z,95276.97
2022-09-27T21:51:35.077Z,95271.75
2022-09-27T21:57:03.690Z,95274.22
2022-09-27T21:59:34.247Z,95273.63
2022-09-27T22:02:14.770Z,95271.03
2022-09-27T22:05:03.042Z,95284.88
2022-09-27T22:07:35.894Z,95270.69
2022-09-27T22:10:09.022Z,95272.91
2022-09-27T22:12:40.616Z,95260.88
2022-09-27T22:15:13.448Z,95262.28
2022-09-27T22:17:41.647Z,95259.09
2022-09-27T22:20:13.944Z,95259.31
2022-09-27T22:22:42.201Z,95256.75
2022-09-27T22:25:15.292Z,95260.81
2022-09-27T22:27:52.675Z,95242.78
2022-09-27T22:30:26.485Z,95245.63
2022-09-27T22:32:57.128Z,95243.66
2022-09-27T22:35:30.531Z,95239.66
2022-09-27T22:37:58.760Z,95242.09
2022-09-27T22:40:30.841Z,95235.72
2022-09-27T22:42:59.857Z,95224.53
2022-09-27T22:45:30.968Z,95223.56
2022-09-27T22:48:00.276Z,95214.56
2022-09-27T22:50:31.845Z,95211.41
2022-09-27T22:53:03.575Z,95210.78
2022-09-27T22:55:37.613Z,95210.50
2022-09-27T22:58:11.165Z,95199.84
2022-09-27T23:00:43.065Z,95200.56
2022-09-27T23:03:11.649Z,95200.22
2022-09-27T23:05:49.462Z,95197.22
2022-09-27T23:08:25.888Z,95199.25
2022-09-27T23:10:54.869Z,95200.28
2022-09-27T23:13:24.129Z,95201.06
2022-09-27T23:16:09.437Z,95204.06
2022-09-27T23:18:38.581Z,95188.38
2022-09-27T23:21:14.701Z,95183.50
2022-09-27T23:23:53.763Z,95184.34
2022-09-27T23:26:30.577Z,95170.19
2022-09-27T23:29:02.211Z,95164.44
2022-09-27T23:31:38.542Z,95155.66
2022-09-27T23:34:10.922Z,95152.41
2022-09-27T23:36:47.799Z,95153.78
2022-09-27T23:39:19.264Z,95144.34
2022-09-27T23:41:50.827Z,95149.50
2022-09-27T23:44:21.345Z,95140.25
2022-09-27T23:46:53.346Z,95137.59
2022-09-27T23:49:26.183Z,95124.94
2022-09-27T23:52:01.021Z,95127.69
2022-09-27T23:54:33.726Z,95120.25
2022-09-27T23:57:13.547Z,95120.59
2022-09-27T23:59:53.459Z,95112.19
